Time;durP1;ratioP1;P1;durP2;ratioP2;P2;SDS_P1;SDS_P2;PMS_P1;PMS_P2;Temp;Humidity;BMP_temperature;BMP_pressure;BME280_temperature;BME280_humidity;BME280_pressure;Samples;Min_cycle;Max_cycle;Signal;HPM_P1;HPM_P2
2022/11/21 00:00:30;;;;;;;41.47;21.08;;;4.10;43.90;;;;;;5034425;28;20217;-42
2022/11/21 00:03:00;;;;;;;41.00;21.20;;;4.10;43.80;;;;;;5034311;28;20166;-42
2022/11/21 00:05:31;;;;;;;39.35;20.83;;;4.10;43.90;;;;;;5032693;28;20198;-42
2022/11/21 00:07:58;;;;;;;32.80;20.08;;;4.10;43.90;;;;;;5032067;28;20229;-40
2022/11/21 00:10:25;;;;;;;36.77;20.03;;;4.20;43.70;;;;;;5034268;28;20194;-41
2022/11/21 00:12:57;;;;;;;41.00;20.83;;;4.20;43.70;;;;;;5034417;28;20472;-41
2022/11/21 00:15:25;;;;;;;39.63;22.23;;;4.20;43.70;;;;;;5034405;28;20170;-41
2022/11/21 00:17:51;;;;;;;44.50;23.20;;;4.20;43.80;;;;;;5033874;28;20197;-41
2022/11/21 00:20:19;;;;;;;39.80;19.55;;;4.30;43.80;;;;;;5034326;28;20206;-40
2022/11/21 00:22:45;;;;;;;38.30;23.13;;;4.30;43.90;;;;;;5034255;28;20634;-41
2022/11/21 00:25:11;;;;;;;42.80;22.58;;;4.30;43.80;;;;;;5034303;28;20174;-40
2022/11/21 00:27:37;;;;;;;37.55;21.30;;;4.30;43.80;;;;;;5033263;28;20165;-41
2022/11/21 00:30:05;;;;;;;39.33;22.13;;;4.40;43.80;;;;;;5033686;28;20596;-41
2022/11/21 00:32:31;;;;;;;36.85;19.48;;;4.40;43.80;;;;;;5032476;28;20559;-41
2022/11/21 00:34:56;;;;;;;38.85;21.05;;;4.40;43.70;;;;;;5033967;28;20257;-41
2022/11/21 00:37:24;;;;;;;38.30;21.57;;;4.40;43.70;;;;;;5033172;28;20308;-41
2022/11/21 00:39:50;;;;;;;36.88;20.33;;;4.50;43.90;;;;;;5033531;28;20281;-41
2022/11/21 00:42:16;;;;;;;43.90;20.57;;;4.50;43.70;;;;;;5033375;28;20330;-40
2022/11/21 00:44:42;;;;;;;34.93;20.40;;;4.50;43.90;;;;;;5033493;28;20169;-41
2022/11/21 00:47:08;;;;;;;42.43;21.37;;;4.50;43.80;;;;;;5032914;28;20181;-41
2022/11/21 00:49:33;;;;;;;37.05;21.90;;;4.50;43.90;;;;;;5033614;28;20166;-41
2022/11/21 00:51:59;;;;;;;39.43;19.40;;;4.50;43.80;;;;;;5033441;28;20276;-41
2022/11/21 00:54:25;;;;;;;40.40;22.23;;;4.50;43.80;;;;;;5033392;28;20432;-40
2022/11/21 00:56:51;;;;;;;40.80;22.17;;;4.50;43.90;;;;;;5032363;28;20166;-41
2022/11/21 00:59:17;;;;;;;54.23;26.63;;;4.50;43.90;;;;;;5033579;28;20805;-40
2022/11/21 01:01:42;;;;;;;45.00;23.30;;;4.50;44.00;;;;;;5031647;28;20202;-41
2022/11/21 01:04:08;;;;;;;36.93;21.50;;;4.50;44.00;;;;;;5033057;28;20483;-41
2022/11/21 01:06:36;;;;;;;37.70;22.53;;;4.50;44.20;;;;;;5032545;28;20707;-39
2022/11/21 01:09:02;;;;;;;39.05;22.48;;;4.50;44.10;;;;;;5032042;28;20470;-41
2022/11/21 01:11:28;;;;;;;38.78;22.45;;;4.50;44.20;;;;;;5031788;28;20279;-41
2022/11/21 01:13:54;;;;;;;41.83;22.13;;;4.50;44.10;;;;;;5031823;28;20268;-40
2022/11/21 01:16:23;;;;;;;44.87;21.47;;;4.50;44.10;;;;;;5032360;28;20628;-41
2022/11/21 01:18:49;;;;;;;40.50;22.70;;;4.60;44.10;;;;;;5032807;28;20166;-41
2022/11/21 01:21:24;;;;;;;45.15;21.20;;;4.60;44.20;;;;;;5032660;28;20215;-41
2022/11/21 01:23:51;;;;;;;42.25;21.92;;;4.60;44.20;;;;;;5032854;28;20521;-41
2022/11/21 01:26:21;;;;;;;37.95;20.25;;;4.60;44.20;;;;;;5032188;28;20170;-41
2022/11/21 01:28:48;;;;;;;39.95;20.45;;;4.60;44.20;;;;;;5032713;28;20165;-39
2022/11/21 01:31:25;;;;;;;37.63;21.77;;;4.60;44.20;;;;;;5031403;28;20209;-41
2022/11/21 01:33:51;;;;;;;42.53;22.65;;;4.70;44.20;;;;;;5032646;28;20169;-41
2022/11/21 01:36:21;;;;;;;41.15;22.10;;;4.70;44.10;;;;;;5032052;28;20182;-41
2022/11/21 01:38:49;;;;;;;38.88;20.77;;;4.70;44.10;;;;;;5032568;28;20253;-41
2022/11/21 01:41:19;;;;;;;37.22;22.10;;;4.80;44.00;;;;;;5030955;28;20213;-40
2022/11/21 01:43:46;;;;;;;39.20;21.55;;;4.80;44.00;;;;;;5032476;28;20248;-42
2022/11/21 01:46:13;;;;;;;37.60;23.10;;;4.90;44.00;;;;;;5031749;28;20170;-41
2022/11/21 01:48:52;;;;;;;37.00;19.17;;;4.80;44.00;;;;;;5032361;28;20638;-43
2022/11/21 01:51:22;;;;;;;35.10;18.73;;;4.80;44.00;;;;;;5030988;28;20202;-40
2022/11/21 01:54:15;;;;;;;30.33;19.83;;;4.90;44.10;;;;;;5032272;28;20201;-41
2022/11/21 01:56:59;;;;;;;40.35;20.25;;;4.90;44.10;;;;;;5031735;28;20260;-41
2022/11/21 01:59:37;;;;;;;38.85;20.55;;;4.90;44.10;;;;;;5032243;28;20656;-42
2022/11/21 02:02:06;;;;;;;33.40;19.85;;;4.90;44.10;;;;;;5030861;28;20209;-43
2022/11/21 02:04:34;;;;;;;35.85;18.58;;;4.90;44.10;;;;;;5032242;28;20163;-42
2022/11/21 02:07:03;;;;;;;37.92;19.50;;;5.00;44.10;;;;;;5031041;28;20267;-42
2022/11/21 02:09:32;;;;;;;37.38;19.50;;;5.00;44.10;;;;;;5032012;28;20281;-41
2022/11/21 02:12:04;;;;;;;37.08;19.52;;;5.00;44.10;;;;;;5030830;28;20696;-44
2022/11/21 02:14:31;;;;;;;40.22;18.75;;;5.00;44.10;;;;;;5032069;28;20166;-42
2022/11/21 02:17:03;;;;;;;41.05;20.38;;;5.00;44.10;;;;;;5031609;28;20166;-40
2022/11/21 02:19:38;;;;;;;30.75;16.75;;;5.00;44.30;;;;;;5030862;28;20176;-41
2022/11/21 02:22:21;;;;;;;33.58;17.75;;;5.00;44.60;;;;;;5031995;28;20194;-41
2022/11/21 02:25:03;;;;;;;28.45;17.10;;;5.00;45.00;;;;;;5031978;28;20529;-42
2022/11/21 02:27:30;;;;;;;31.13;17.85;;;5.00;45.50;;;;;;5030134;28;20208;-42
2022/11/21 02:29:56;;;;;;;30.42;14.90;;;5.10;45.50;;;;;;5031841;28;20170;-41
2022/11/21 02:32:23;;;;;;;31.87;17.43;;;5.20;45.90;;;;;;5031914;28;20180;-40
2022/11/21 02:34:49;;;;;;;33.33;19.27;;;5.30;46.00;;;;;;5031787;28;20404;-42
2022/11/21 02:37:16;;;;;;;34.50;19.03;;;5.30;46.00;;;;;;5031258;28;20170;-41
2022/11/21 02:39:44;;;;;;;26.67;16.80;;;5.30;46.00;;;;;;5031605;28;20491;-43
2022/11/21 02:42:40;;;;;;;28.10;14.25;;;5.40;45.90;;;;;;5031694;28;20245;-40
2022/11/21 02:45:19;;;;;;;29.73;17.50;;;5.50;46.20;;;;;;5030321;28;20190;-42
2022/11/21 02:47:49;;;;;;;28.55;16.83;;;5.50;46.30;;;;;;5029831;28;20213;-40
2022/11/21 02:50:22;;;;;;;33.38;18.35;;;5.50;46.60;;;;;;5031840;28;20597;-44
2022/11/21 02:52:49;;;;;;;26.52;14.63;;;5.50;46.40;;;;;;5031754;28;20173;-41
2022/11/21 02:55:14;;;;;;;28.67;17.25;;;5.50;46.90;;;;;;5030449;28;20182;-43
2022/11/21 02:57:41;;;;;;;32.40;16.40;;;5.50;46.80;;;;;;5031101;28;20176;-40
2022/11/21 03:00:08;;;;;;;25.17;17.05;;;5.60;46.90;;;;;;5031617;28;20198;-43
2022/11/21 03:02:34;;;;;;;29.95;16.70;;;5.60;47.00;;;;;;5031596;28;20240;-42
2022/11/21 03:05:01;;;;;;;28.52;16.33;;;5.60;46.90;;;;;;5030616;28;20256;-42
2022/11/21 03:07:27;;;;;;;29.10;15.63;;;5.60;46.70;;;;;;5032300;28;20198;-41
2022/11/21 03:09:52;;;;;;;28.87;16.03;;;5.70;46.70;;;;;;5032886;28;20181;-43
2022/11/21 03:12:18;;;;;;;27.67;16.23;;;5.70;46.70;;;;;;5031987;28;20534;-44
2022/11/21 03:14:44;;;;;;;26.07;16.97;;;5.70;46.50;;;;;;5032536;28;20166;-42
2022/11/21 03:17:10;;;;;;;30.23;14.63;;;5.80;46.50;;;;;;5031763;28;20174;-42
2022/11/21 03:19:35;;;;;;;24.47;13.50;;;5.80;46.40;;;;;;5034891;28;20243;-42
2022/11/21 03:22:01;;;;;;;28.53;16.97;;;5.80;46.40;;;;;;5035632;28;20217;-41
2022/11/21 03:24:27;;;;;;;26.83;16.20;;;5.80;46.50;;;;;;5036031;28;20193;-44
2022/11/21 03:26:53;;;;;;;27.43;14.67;;;5.80;46.50;;;;;;5036373;28;20177;-41
2022/11/21 03:29:18;;;;;;;28.10;17.20;;;5.90;46.50;;;;;;5035672;28;20216;-42
2022/11/21 03:31:44;;;;;;;26.70;15.50;;;5.90;46.40;;;;;;5035537;28;20700;-42
2022/11/21 03:34:10;;;;;;;30.47;19.17;;;5.90;46.50;;;;;;5035991;28;20249;-44
2022/11/21 03:36:35;;;;;;;24.90;14.20;;;5.90;46.50;;;;;;5034569;28;20178;-43
2022/11/21 03:39:02;;;;;;;28.57;13.97;;;5.90;46.50;;;;;;5036868;28;20170;-41
2022/11/21 03:41:30;;;;;;;25.00;13.15;;;5.90;46.70;;;;;;5036721;28;20214;-41
2022/11/21 03:44:07;;;;;;;24.35;14.63;;;5.90;46.60;;;;;;5035936;28;20174;-42
2022/11/21 03:46:35;;;;;;;25.52;15.45;;;5.90;46.70;;;;;;5034914;28;20226;-43
2022/11/21 03:49:02;;;;;;;24.55;15.07;;;5.90;46.70;;;;;;5036038;28;20177;-43
2022/11/21 03:51:28;;;;;;;21.23;12.23;;;6.00;47.20;;;;;;5035701;28;20262;-43
2022/11/21 03:53:54;;;;;;;27.03;14.43;;;5.90;47.10;;;;;;5035781;28;20657;-43
2022/11/21 03:56:20;;;;;;;22.27;13.90;;;6.00;47.10;;;;;;5034832;28;20401;-44
2022/11/21 03:58:46;;;;;;;26.53;16.43;;;6.00;47.00;;;;;;5034629;28;20642;-41
2022/11/21 04:01:12;;;;;;;25.40;15.30;;;6.00;46.90;;;;;;5035717;28;20490;-42
2022/11/21 04:03:39;;;;;;;31.88;15.30;;;6.00;46.80;;;;;;5035745;28;20178;-43
2022/11/21 04:06:05;;;;;;;25.33;16.48;;;6.10;47.00;;;;;;5034460;28;20232;-43
2022/11/21 04:08:31;;;;;;;18.60;13.50;;;6.10;47.00;;;;;;5034523;28;20175;-43
2022/11/21 04:10:57;;;;;;;26.77;14.03;;;6.00;46.90;;;;;;5035656;28;20190;-42
2022/11/21 04:13:23;;;;;;;20.83;12.45;;;6.10;47.60;;;;;;5034288;28;20413;-44
2022/11/21 04:15:49;;;;;;;25.40;14.10;;;6.10;46.90;;;;;;5034408;28;20185;-41
2022/11/21 04:18:15;;;;;;;26.73;13.07;;;6.10;46.90;;;;;;5035467;28;20405;-44
2022/11/21 04:20:42;;;;;;;26.45;14.38;;;6.10;46.80;;;;;;5034923;28;20709;-41
2022/11/21 04:23:07;;;;;;;19.65;12.73;;;6.10;47.50;;;;;;5034264;28;20174;-42
2022/11/21 04:25:33;;;;;;;23.40;12.97;;;6.10;46.90;;;;;;5033997;28;20181;-41
2022/11/21 04:28:00;;;;;;;27.80;13.80;;;6.10;46.80;;;;;;5034220;28;20178;-44
2022/11/21 04:30:27;;;;;;;22.42;12.15;;;6.10;46.80;;;;;;5033900;28;20197;-43
2022/11/21 04:32:54;;;;;;;22.33;13.05;;;6.10;46.90;;;;;;5035067;28;20175;-43
2022/11/21 04:35:22;;;;;;;17.58;11.77;;;6.10;47.20;;;;;;5034912;28;20174;-41
2022/11/21 04:37:48;;;;;;;29.63;13.65;;;6.10;47.10;;;;;;5034276;28;20178;-40
2022/11/21 04:40:14;;;;;;;18.93;11.63;;;6.10;47.10;;;;;;5034197;28;20392;-44
2022/11/21 04:42:41;;;;;;;16.88;10.85;;;6.10;47.10;;;;;;5034718;28;20194;-42
2022/11/21 04:45:08;;;;;;;14.45;10.00;;;6.10;47.10;;;;;;5034285;28;20553;-41
2022/11/21 04:47:38;;;;;;;19.23;10.52;;;6.10;47.10;;;;;;5033901;28;20173;-42
2022/11/21 04:50:04;;;;;;;20.63;12.45;;;6.10;47.00;;;;;;5034321;28;20182;-41
2022/11/21 04:52:30;;;;;;;22.67;13.52;;;6.20;47.00;;;;;;5034033;28;20197;-41
2022/11/21 04:54:56;;;;;;;16.50;12.23;;;6.20;47.10;;;;;;5032137;28;20190;-42
2022/11/21 04:57:22;;;;;;;19.00;11.80;;;6.20;47.10;;;;;;5034482;28;20253;-44
2022/11/21 04:59:48;;;;;;;20.15;11.68;;;6.20;47.10;;;;;;5033774;28;20396;-44
2022/11/21 05:02:13;;;;;;;18.20;11.90;;;6.10;47.20;;;;;;5034113;28;20332;-41
2022/11/21 05:04:39;;;;;;;20.67;12.13;;;6.10;47.40;;;;;;5033596;28;20175;-41
2022/11/21 05:07:05;;;;;;;20.70;11.40;;;6.10;47.20;;;;;;5033207;28;20487;-44
2022/11/21 05:09:31;;;;;;;18.77;11.67;;;6.00;48.00;;;;;;5033992;28;20308;-43
2022/11/21 05:14:41;;;;;;;17.92;10.75;;;6.00;47.50;;;;;;5025929;28;20180;-42
2022/11/21 05:17:06;;;;;;;21.00;13.20;;;6.00;47.70;;;;;;5032345;28;20170;-44
2022/11/21 05:19:32;;;;;;;27.30;14.00;;;6.00;47.70;;;;;;5032723;28;20652;-42
2022/11/21 05:21:58;;;;;;;17.20;12.10;;;6.00;47.60;;;;;;5032700;28;20193;-45
2022/11/21 05:24:23;;;;;;;12.47;8.93;;;6.10;47.50;;;;;;5032610;28;20170;-45
2022/11/21 05:26:49;;;;;;;20.80;11.90;;;6.10;47.60;;;;;;5032023;28;20166;-42
2022/11/21 05:29:15;;;;;;;19.73;11.63;;;6.10;47.50;;;;;;5031338;28;20228;-43
2022/11/21 05:31:41;;;;;;;30.03;13.27;;;6.10;47.40;;;;;;5032552;28;20217;-43
2022/11/21 05:34:06;;;;;;;16.33;11.27;;;6.10;47.30;;;;;;5032756;28;20174;-43
2022/11/21 05:36:32;;;;;;;13.00;10.90;;;6.10;47.20;;;;;;5032083;28;20193;-43
2022/11/21 05:38:58;;;;;;;18.93;13.00;;;6.10;47.30;;;;;;5032593;28;20415;-45
2022/11/21 05:41:24;;;;;;;21.13;13.23;;;6.10;47.40;;;;;;5032196;28;20293;-43
2022/11/21 05:43:49;;;;;;;29.60;12.83;;;6.10;47.40;;;;;;5032283;28;20166;-44
2022/11/21 05:46:18;;;;;;;28.03;17.10;;;6.10;47.40;;;;;;5031854;28;20167;-42
2022/11/21 05:48:45;;;;;;;31.75;17.45;;;6.10;47.60;;;;;;5032501;28;20213;-43
2022/11/21 05:51:11;;;;;;;27.27;16.35;;;6.20;47.70;;;;;;5032327;28;20193;-43
2022/11/21 05:53:36;;;;;;;23.00;15.27;;;6.10;47.80;;;;;;5032265;28;20630;-44
2022/11/21 05:56:04;;;;;;;20.03;14.10;;;6.10;47.70;;;;;;5031942;28;20408;-43
2022/11/21 05:58:31;;;;;;;18.83;14.60;;;6.10;48.00;;;;;;5032240;28;20178;-44
2022/11/21 06:00:57;;;;;;;18.98;13.10;;;6.00;48.10;;;;;;5031983;28;20293;-44
2022/11/21 06:03:27;;;;;;;19.05;12.10;;;6.00;48.20;;;;;;5032216;28;20170;-43
2022/11/21 06:06:09;;;;;;;16.25;11.18;;;6.00;48.10;;;;;;5031857;28;20174;-44
2022/11/21 06:08:43;;;;;;;19.13;11.35;;;6.10;48.10;;;;;;5032154;28;20581;-43
2022/11/21 06:11:14;;;;;;;20.48;12.32;;;6.10;48.00;;;;;;5031980;28;20209;-44
2022/11/21 06:13:40;;;;;;;22.27;13.60;;;6.20;48.00;;;;;;5032091;28;20169;-42
2022/11/21 06:16:09;;;;;;;21.13;14.77;;;6.20;47.90;;;;;;5030177;28;20188;-42
2022/11/21 06:18:37;;;;;;;16.65;11.60;;;6.20;47.90;;;;;;5032040;28;20166;-42
2022/11/21 06:21:08;;;;;;;17.25;12.55;;;6.20;48.20;;;;;;5030629;28;20198;-43
2022/11/21 06:23:35;;;;;;;28.25;13.82;;;6.20;48.20;;;;;;5032099;28;20170;-43
2022/11/21 06:26:03;;;;;;;17.55;12.50;;;6.20;48.00;;;;;;5031314;28;20174;-42
2022/11/21 06:28:32;;;;;;;17.48;12.13;;;6.20;48.00;;;;;;5031888;28;20170;-45
2022/11/21 06:31:06;;;;;;;19.38;13.10;;;6.20;48.00;;;;;;5032105;28;20232;-41
2022/11/21 06:33:33;;;;;;;19.77;11.82;;;6.20;47.90;;;;;;5032087;28;20166;-42
2022/11/21 06:36:11;;;;;;;22.25;13.00;;;6.30;47.90;;;;;;5031298;28;20197;-43
2022/11/21 06:38:37;;;;;;;20.48;13.30;;;6.30;47.80;;;;;;5031723;28;20186;-41
2022/11/21 06:41:17;;;;;;;19.00;12.30;;;6.30;47.80;;;;;;5031846;28;20751;-42
2022/11/21 06:43:43;;;;;;;26.58;13.13;;;6.30;47.90;;;;;;5031825;28;20391;-41
2022/11/21 06:46:10;;;;;;;21.55;14.82;;;6.30;47.90;;;;;;5031290;28;20170;-44
2022/11/21 06:48:37;;;;;;;23.23;14.55;;;6.20;48.00;;;;;;5031700;28;20558;-42
2022/11/21 06:51:10;;;;;;;30.98;17.55;;;6.30;48.50;;;;;;5030235;28;20538;-41
2022/11/21 06:53:35;;;;;;;26.58;15.15;;;6.20;48.30;;;;;;5032264;28;20185;-42
2022/11/21 06:56:01;;;;;;;27.90;16.17;;;6.20;48.60;;;;;;5034822;28;20185;-41
2022/11/21 06:58:28;;;;;;;29.33;15.83;;;6.20;48.70;;;;;;5035419;28;20170;-43
2022/11/21 07:00:54;;;;;;;23.80;13.90;;;6.20;49.00;;;;;;5035426;28;20511;-43
2022/11/21 07:03:21;;;;;;;28.45;16.45;;;6.20;48.90;;;;;;5035326;28;20198;-43
2022/11/21 07:05:47;;;;;;;24.55;14.50;;;6.30;49.10;;;;;;5035009;28;20253;-42
2022/11/21 07:08:13;;;;;;;30.02;13.88;;;6.30;49.30;;;;;;5035248;28;20172;-43
2022/11/21 07:10:39;;;;;;;33.43;16.30;;;6.30;49.60;;;;;;5035458;28;20641;-42
2022/11/21 07:13:23;;;;;;;26.87;13.50;;;6.30;49.50;;;;;;5034992;28;20452;-43
2022/11/21 07:15:54;;;;;;;26.77;15.48;;;6.30;49.40;;;;;;5034598;28;20181;-41
2022/11/21 07:18:21;;;;;;;18.23;12.98;;;6.30;49.50;;;;;;5035165;28;20174;-43
2022/11/21 07:20:47;;;;;;;18.77;12.20;;;6.30;49.40;;;;;;5034980;28;20280;-42
2022/11/21 07:23:13;;;;;;;21.00;14.40;;;6.20;49.30;;;;;;5034927;28;20175;-42
2022/11/21 07:25:39;;;;;;;25.50;14.90;;;6.30;49.30;;;;;;5034554;28;20181;-41
2022/11/21 07:28:06;;;;;;;20.83;12.48;;;6.20;49.40;;;;;;5035078;28;20174;-41
2022/11/21 07:30:33;;;;;;;24.63;14.25;;;6.20;49.20;;;;;;5034643;28;20181;-43
2022/11/21 07:33:02;;;;;;;20.85;13.40;;;6.20;49.40;;;;;;5034642;28;20272;-42
2022/11/21 07:35:28;;;;;;;23.25;13.35;;;6.20;49.30;;;;;;5034595;28;20177;-44
2022/11/21 07:37:54;;;;;;;25.20;14.00;;;6.20;49.30;;;;;;5034229;28;20182;-42
2022/11/21 07:40:20;;;;;;;22.07;14.67;;;6.10;49.30;;;;;;5034604;28;20247;-42
2022/11/21 07:42:46;;;;;;;21.13;12.43;;;6.10;49.30;;;;;;5034489;28;20709;-42
2022/11/21 07:45:13;;;;;;;22.50;13.70;;;6.10;49.30;;;;;;5034464;28;20400;-43
2022/11/21 07:47:39;;;;;;;22.05;14.48;;;6.00;49.10;;;;;;5033977;28;20174;-43
2022/11/21 07:50:07;;;;;;;25.65;15.30;;;6.00;49.20;;;;;;5034526;28;20185;-42
2022/11/21 07:52:32;;;;;;;25.58;15.88;;;5.90;49.20;;;;;;5034343;28;20202;-43
2022/11/21 07:55:01;;;;;;;24.67;14.13;;;5.90;49.20;;;;;;5034381;28;20177;-41
2022/11/21 07:57:27;;;;;;;27.58;15.73;;;5.80;49.00;;;;;;5034031;28;20648;-43
2022/11/21 07:59:53;;;;;;;24.35;14.32;;;5.70;49.10;;;;;;5034129;28;20186;-42
2022/11/21 08:02:21;;;;;;;24.10;15.23;;;5.60;49.20;;;;;;5034130;28;20198;-42
2022/11/21 08:04:47;;;;;;;26.85;14.85;;;5.50;49.40;;;;;;5033799;28;20410;-43
2022/11/21 08:07:18;;;;;;;21.80;15.10;;;5.40;49.20;;;;;;5032800;28;20216;-44
2022/11/21 08:09:44;;;;;;;29.83;17.80;;;5.50;49.30;;;;;;5034367;28;20225;-43
2022/11/21 08:12:10;;;;;;;26.40;15.60;;;5.40;49.10;;;;;;5033805;28;20211;-43
2022/11/21 08:14:36;;;;;;;24.95;14.52;;;5.40;49.10;;;;;;5034299;28;20185;-44
2022/11/21 08:17:03;;;;;;;26.63;17.05;;;5.40;48.90;;;;;;5033408;28;20261;-43
2022/11/21 08:19:28;;;;;;;25.40;16.08;;;5.30;48.50;;;;;;5033917;28;20584;-43
2022/11/21 08:21:54;;;;;;;23.77;15.73;;;5.30;48.90;;;;;;5033641;28;20206;-42
2022/11/21 08:24:20;;;;;;;23.57;15.20;;;5.30;48.90;;;;;;5034050;28;20537;-44
2022/11/21 08:26:46;;;;;;;22.77;15.67;;;5.20;48.60;;;;;;5033085;28;20642;-45
2022/11/21 08:29:14;;;;;;;25.40;14.77;;;5.10;48.90;;;;;;5033959;28;20463;-44
2022/11/21 08:31:40;;;;;;;25.67;14.18;;;5.00;48.90;;;;;;5033983;28;20201;-42
2022/11/21 08:34:06;;;;;;;24.00;14.63;;;5.00;48.90;;;;;;5033907;28;20650;-44
2022/11/21 08:36:32;;;;;;;22.80;14.68;;;5.00;49.00;;;;;;5032875;28;20192;-45
2022/11/21 08:38:58;;;;;;;27.20;16.00;;;5.00;48.80;;;;;;5033618;28;20166;-43
2022/11/21 08:44:08;;;;;;;22.65;14.80;;;4.90;48.60;;;;;;5033765;28;20644;-44
2022/11/21 08:46:36;;;;;;;31.30;17.37;;;4.90;48.70;;;;;;5033082;28;20170;-42
2022/11/21 08:49:05;;;;;;;27.52;15.30;;;4.80;48.90;;;;;;5033277;28;20185;-42
2022/11/21 08:51:31;;;;;;;29.98;16.85;;;4.80;48.90;;;;;;5033165;28;20727;-42
2022/11/21 08:53:57;;;;;;;25.95;14.85;;;4.80;48.90;;;;;;5033209;28;20171;-43
2022/11/21 08:56:24;;;;;;;31.50;16.47;;;4.70;49.00;;;;;;5032522;28;20178;-42
2022/11/21 08:58:50;;;;;;;33.38;15.98;;;4.70;49.20;;;;;;5033303;28;20485;-43
2022/11/21 09:01:16;;;;;;;27.60;17.27;;;4.70;49.00;;;;;;5033084;28;20650;-43
2022/11/21 09:03:41;;;;;;;27.90;15.07;;;4.70;48.90;;;;;;5033309;28;20920;-42
2022/11/21 09:06:07;;;;;;;27.90;17.23;;;4.70;48.90;;;;;;5032707;28;20895;-43
2022/11/21 09:08:33;;;;;;;30.50;17.57;;;4.80;48.90;;;;;;5032538;28;20210;-43
2022/11/21 09:11:07;;;;;;;26.90;15.70;;;4.80;48.90;;;;;;5032979;28;20420;-43
2022/11/21 09:13:33;;;;;;;25.85;17.73;;;4.80;48.70;;;;;;5032817;28;20955;-42
2022/11/21 09:18:43;;;;;;;29.42;17.23;;;4.90;48.40;;;;;;5032957;28;20228;-44
2022/11/21 09:21:14;;;;;;;32.80;16.53;;;4.90;48.50;;;;;;5032706;28;20977;-44
2022/11/21 09:23:40;;;;;;;29.80;16.88;;;4.90;48.40;;;;;;5032689;28;20447;-44
2022/11/21 09:26:06;;;;;;;28.73;17.20;;;4.80;48.40;;;;;;5032091;28;20166;-43
2022/11/21 09:28:31;;;;;;;23.90;15.40;;;4.80;48.60;;;;;;5032570;28;20396;-44
2022/11/21 09:30:57;;;;;;;28.80;16.90;;;4.80;48.70;;;;;;5032589;28;20541;-43
2022/11/21 09:33:23;;;;;;;29.97;17.37;;;4.80;48.60;;;;;;5032409;28;20526;-45
2022/11/21 09:35:49;;;;;;;27.10;16.70;;;4.80;48.60;;;;;;5032090;28;20178;-44
2022/11/21 09:38:14;;;;;;;31.00;17.63;;;4.90;48.50;;;;;;5032626;28;20170;-42
2022/11/21 09:40:47;;;;;;;24.60;17.30;;;4.80;48.50;;;;;;5032568;28;20444;-43
2022/11/21 09:43:25;;;;;;;35.63;19.70;;;4.90;48.70;;;;;;5032706;28;20159;-42
2022/11/21 09:46:00;;;;;;;30.27;18.23;;;5.00;48.50;;;;;;5031668;28;20178;-42
2022/11/21 09:48:35;;;;;;;30.92;16.98;;;5.00;48.60;;;;;;5032198;28;20197;-44
2022/11/21 09:51:12;;;;;;;26.88;16.17;;;5.00;48.40;;;;;;5032406;28;20242;-44
2022/11/21 09:53:44;;;;;;;30.98;18.10;;;5.10;48.50;;;;;;5032484;28;20537;-45
2022/11/21 09:56:14;;;;;;;30.73;17.38;;;5.10;48.30;;;;;;5031647;28;20634;-43
2022/11/21 09:59:10;;;;;;;30.63;17.45;;;5.20;48.20;;;;;;5032102;28;20178;-44
2022/11/21 10:01:36;;;;;;;28.60;16.67;;;5.20;48.10;;;;;;5031963;28;20241;-44
2022/11/21 10:04:02;;;;;;;29.50;16.55;;;5.20;48.10;;;;;;5031995;28;20181;-44
2022/11/21 10:06:31;;;;;;;28.60;18.08;;;5.20;47.90;;;;;;5031452;28;20612;-43
2022/11/21 10:09:29;;;;;;;27.77;15.32;;;5.20;47.90;;;;;;5030715;28;20173;-42
2022/11/21 10:15:20;;;;;;;33.45;18.00;;;4.90;48.50;;;;;;5032005;28;20253;-44
2022/11/21 10:18:23;;;;;;;30.10;18.45;;;4.90;48.60;;;;;;5031692;28;20174;-43
2022/11/21 10:21:00;;;;;;;25.98;16.05;;;4.90;48.50;;;;;;5031776;28;20197;-44
2022/11/21 10:23:32;;;;;;;27.42;16.60;;;4.90;48.70;;;;;;5031797;28;20231;-44
2022/11/21 10:26:14;;;;;;;26.25;17.13;;;4.90;48.60;;;;;;5031259;28;20245;-42
2022/11/21 10:28:43;;;;;;;31.55;16.77;;;5.00;48.50;;;;;;5032548;28;20727;-43
2022/11/21 10:31:12;;;;;;;27.85;15.88;;;5.00;48.40;;;;;;5035923;28;20229;-43
2022/11/21 10:33:39;;;;;;;26.15;17.35;;;5.10;48.60;;;;;;5036093;28;20499;-43
2022/11/21 10:36:31;;;;;;;26.23;17.38;;;5.20;48.40;;;;;;5035225;28;20193;-43
2022/11/21 10:39:25;;;;;;;29.77;17.48;;;5.30;48.30;;;;;;5025021;28;20204;-44
2022/11/21 10:42:17;;;;;;;24.42;16.80;;;5.30;48.20;;;;;;5035133;28;20209;-44
2022/11/21 10:47:36;;;;;;;29.15;16.98;;;5.40;47.90;;;;;;5035068;28;20584;-44
2022/11/21 10:50:08;;;;;;;25.38;17.05;;;5.30;47.80;;;;;;5034553;28;20181;-44
2022/11/21 10:52:41;;;;;;;28.02;17.48;;;5.30;48.00;;;;;;5035416;28;20186;-45
2022/11/21 10:55:10;;;;;;;35.50;19.95;;;5.30;48.10;;;;;;5035545;28;20181;-44
2022/11/21 10:57:44;;;;;;;30.13;19.00;;;5.40;48.10;;;;;;5034857;28;20645;-43
2022/11/21 11:00:13;;;;;;;33.88;19.30;;;5.50;48.00;;;;;;5035323;28;20166;-45
2022/11/21 11:02:40;;;;;;;31.20;17.27;;;5.50;47.90;;;;;;5035175;28;20685;-44
2022/11/21 11:05:26;;;;;;;25.75;16.83;;;5.50;47.70;;;;;;5035296;28;20724;-44
2022/11/21 11:08:18;;;;;;;23.55;14.75;;;5.50;47.60;;;;;;5034746;28;20161;-42
2022/11/21 11:10:59;;;;;;;31.85;16.98;;;5.50;47.70;;;;;;5032251;28;20178;-44
2022/11/21 11:16:14;;;;;;;33.10;15.73;;;5.60;47.60;;;;;;5034404;28;20253;-42
2022/11/21 11:18:45;;;;;;;26.13;16.35;;;5.50;47.40;;;;;;5034939;28;20668;-44
2022/11/21 11:21:19;;;;;;;24.63;16.05;;;5.50;47.50;;;;;;5034894;28;20301;-42
2022/11/21 11:23:46;;;;;;;28.92;16.33;;;5.50;47.40;;;;;;5034920;28;20272;-42
2022/11/21 11:26:20;;;;;;;31.50;17.90;;;5.50;47.60;;;;;;5034293;28;20657;-44
2022/11/21 11:28:46;;;;;;;31.50;17.70;;;5.40;47.40;;;;;;5034947;28;20257;-44
2022/11/21 11:31:11;;;;;;;25.37;15.70;;;5.40;47.80;;;;;;5034793;28;20352;-44
2022/11/21 11:33:39;;;;;;;26.67;18.23;;;5.50;48.00;;;;;;5034998;28;20439;-45
2022/11/21 11:36:20;;;;;;;27.60;17.33;;;5.50;47.80;;;;;;5042874;23;20415;-44
2022/11/21 11:38:57;;;;;;;27.02;16.08;;;5.60;48.00;;;;;;5043008;28;20198;-45
2022/11/21 11:47:54;;;;;;;28.38;16.05;;;5.90;47.60;;;;;;5034224;28;20216;-45
2022/11/21 11:50:44;;;;;;;23.70;15.55;;;6.00;47.40;;;;;;5034783;28;20200;-46
2022/11/21 11:53:10;;;;;;;21.58;13.90;;;6.10;47.30;;;;;;5034450;28;20645;-45
2022/11/21 11:55:42;;;;;;;23.43;15.10;;;6.10;47.30;;;;;;5033804;28;20189;-47
2022/11/21 11:58:30;;;;;;;25.38;17.08;;;6.20;47.20;;;;;;5034321;28;20190;-45
2022/11/21 12:01:07;;;;;;;27.05;14.80;;;6.20;47.20;;;;;;5034124;28;20208;-45
2022/11/21 12:03:39;;;;;;;26.90;16.23;;;6.30;47.40;;;;;;5034496;28;20170;-45
2022/11/21 12:06:29;;;;;;;23.77;14.65;;;6.30;46.80;;;;;;5033587;28;20209;-46
2022/11/21 12:09:02;;;;;;;26.23;17.08;;;6.30;46.70;;;;;;5034088;28;20248;-46
2022/11/21 12:12:08;;;;;;;22.98;14.38;;;6.40;46.90;;;;;;5034334;28;20163;-45
2022/11/21 12:18:06;;;;;;;31.85;14.55;;;6.30;46.20;;;;;;5033367;28;20208;-44
2022/11/21 12:20:35;;;;;;;24.45;14.48;;;6.30;46.60;;;;;;5033859;28;20600;-46
2022/11/21 12:23:03;;;;;;;22.30;13.60;;;6.20;46.80;;;;;;5034026;28;20240;-45
2022/11/21 12:25:36;;;;;;;22.13;12.85;;;6.30;46.80;;;;;;5033686;28;20198;-47
2022/11/21 12:28:08;;;;;;;27.05;13.73;;;6.30;46.30;;;;;;5033935;28;20202;-44
2022/11/21 12:30:43;;;;;;;21.08;13.07;;;6.20;46.40;;;;;;5032666;28;20174;-45
2022/11/21 12:33:23;;;;;;;26.65;15.82;;;6.10;46.00;;;;;;5033788;28;20260;-46
2022/11/21 12:35:58;;;;;;;24.65;14.60;;;6.10;46.70;;;;;;5032913;28;20243;-44
2022/11/21 12:38:48;;;;;;;22.40;14.27;;;6.20;46.70;;;;;;5033497;28;20235;-45
2022/11/21 12:44:49;;;;;;;26.10;15.50;;;6.30;46.50;;;;;;5033799;28;20161;-46
2022/11/21 12:54:29;;;;;;;18.13;12.95;;;6.30;46.70;;;;;;5033012;28;20193;-46
2022/11/21 12:56:48;;;;;;;23.02;14.20;;;6.40;46.60;;;;;;5032624;28;20207;-46
2022/11/21 12:59:14;;;;;;;19.23;13.43;;;6.40;46.40;;;;;;5033035;28;20223;-45
2022/11/21 13:01:52;;;;;;;22.92;13.43;;;6.50;46.50;;;;;;5032973;28;20209;-44
2022/11/21 13:04:25;;;;;;;21.88;13.82;;;6.50;46.50;;;;;;5033152;28;20177;-45
2022/11/21 13:06:53;;;;;;;21.40;12.85;;;6.60;46.50;;;;;;5032626;28;20596;-46
2022/11/21 13:09:22;;;;;;;24.10;14.60;;;6.50;46.20;;;;;;5032999;28;20168;-46
2022/11/21 13:11:59;;;;;;;24.50;13.52;;;6.50;46.30;;;;;;5032845;28;20185;-45
2022/11/21 13:14:47;;;;;;;22.85;14.05;;;6.50;46.40;;;;;;5032786;28;20525;-45
2022/11/21 13:17:24;;;;;;;24.52;15.23;;;6.50;45.90;;;;;;5032184;28;20201;-44
2022/11/21 13:19:59;;;;;;;20.83;12.63;;;6.50;45.80;;;;;;5033017;28;20239;-45
2022/11/21 13:22:37;;;;;;;22.13;13.52;;;6.40;45.30;;;;;;5032795;28;20181;-45
2022/11/21 13:25:11;;;;;;;24.95;14.50;;;6.40;45.80;;;;;;5032861;28;20251;-45